createdAt,value
2022-10-18T00:01:08.261Z,230.35
2022-10-18T00:03:35.962Z,359.23
2022-10-18T00:06:05.556Z,370.33
2022-10-18T00:08:32.568Z,235.85
2022-10-18T00:10:59.679Z,433.65
2022-10-18T00:13:26.834Z,273.17
2022-10-18T00:15:56.775Z,399.60
2022-10-18T00:18:24.293Z,220.88
2022-10-18T00:20:59.442Z,363.58
2022-10-18T00:23:29.060Z,391.65
2022-10-18T00:26:01.012Z,415.13
2022-10-18T00:28:28.095Z,390.42
2022-10-18T00:30:55.119Z,360.90
2022-10-18T00:33:22.225Z,172.85
2022-10-18T00:35:49.376Z,385.50
2022-10-18T00:40:45.093Z,390.63
2022-10-18T00:43:16.088Z,274.25
2022-10-18T00:48:12.732Z,402.27
2022-10-18T00:58:06.759Z,155.00
2022-10-18T01:00:38.601Z,304.25
2022-10-18T01:03:06.260Z,404.35
2022-10-18T01:05:36.478Z,96.10
2022-10-18T01:08:38.880Z,387.53
2022-10-18T01:11:36.508Z,469.33
2022-10-18T01:14:15.272Z,228.93
2022-10-18T01:16:49.148Z,288.83
2022-10-18T01:19:37.580Z,196.80
2022-10-18T01:22:09.335Z,137.55
2022-10-18T01:24:55.036Z,98.30
2022-10-18T01:27:36.147Z,333.23
2022-10-18T01:30:34.734Z,201.77
2022-10-18T01:33:07.369Z,97.38
2022-10-18T01:35:39.961Z,104.20
2022-10-18T01:38:11.608Z,116.65
2022-10-18T01:40:41.134Z,109.78
2022-10-18T01:43:09.800Z,100.03
2022-10-18T01:45:38.497Z,94.57
2022-10-18T01:48:06.364Z,132.90
2022-10-18T01:50:35.014Z,76.55
2022-10-18T01:53:02.274Z,79.47
2022-10-18T01:55:39.016Z,87.45
2022-10-18T01:58:12.937Z,77.63
2022-10-18T02:00:42.493Z,93.30
2022-10-18T02:03:16.119Z,94.35
2022-10-18T02:05:49.230Z,89.57
2022-10-18T02:08:25.237Z,109.82
2022-10-18T02:10:56.991Z,133.70
2022-10-18T02:13:29.108Z,173.75
2022-10-18T02:16:01.611Z,252.93
2022-10-18T02:18:34.264Z,208.23
2022-10-18T02:21:03.510Z,250.73
2022-10-18T02:23:32.690Z,583.08
2022-10-18T02:25:59.772Z,494.58
2022-10-18T02:28:27.313Z,380.58
2022-10-18T02:31:00.988Z,283.38
2022-10-18T02:33:33.897Z,348.02
2022-10-18T02:36:06.426Z,512.40
2022-10-18T02:38:33.707Z,344.60
2022-10-18T02:41:00.920Z,588.08
2022-10-18T02:43:27.845Z,604.78
2022-10-18T02:45:54.902Z,531.47
2022-10-18T02:48:23.267Z,490.00
2022-10-18T02:50:50.243Z,611.15
2022-10-18T02:53:17.178Z,561.85
2022-10-18T02:55:44.164Z,596.08
2022-10-18T02:58:11.090Z,503.67
2022-10-18T03:00:38.049Z,182.75
2022-10-18T03:03:05.072Z,91.57
2022-10-18T03:05:33.470Z,192.63
2022-10-18T03:08:00.483Z,302.02
2022-10-18T03:10:27.492Z,163.98
2022-10-18T03:12:54.527Z,90.63
2022-10-18T03:15:21.470Z,84.63
2022-10-18T03:17:48.412Z,61.53
2022-10-18T03:20:15.497Z,66.60
2022-10-18T03:22:43.987Z,53.40
2022-10-18T03:25:10.905Z,44.65
2022-10-18T03:27:37.900Z,49.63
2022-10-18T03:30:05.746Z,54.58
2022-10-18T03:32:32.865Z,49.25
2022-10-18T03:35:00.011Z,50.70
2022-10-18T03:37:27.051Z,41.78
2022-10-18T03:39:55.349Z,43.97
2022-10-18T03:42:22.323Z,42.03
2022-10-18T03:44:49.474Z,46.40
2022-10-18T03:47:16.493Z,48.85
2022-10-18T03:49:43.436Z,39.78
2022-10-18T03:52:10.409Z,42.53
2022-10-18T03:54:37.424Z,43.55
2022-10-18T03:57:06.353Z,44.30
2022-10-18T03:59:33.330Z,45.58
2022-10-18T04:02:00.403Z,51.13
2022-10-18T04:04:27.405Z,46.42
2022-10-18T04:06:54.411Z,56.17
2022-10-18T04:09:21.411Z,44.58
2022-10-18T04:11:50.409Z,46.03
2022-10-18T04:14:21.301Z,43.80
2022-10-18T04:16:48.425Z,39.85
2022-10-18T04:19:15.564Z,45.55
2022-10-18T04:21:42.588Z,51.33
2022-10-18T04:24:09.613Z,45.60
2022-10-18T04:26:36.538Z,56.58
2022-10-18T04:29:03.752Z,41.33
2022-10-18T04:31:32.136Z,31.58
2022-10-18T04:33:59.253Z,46.92
2022-10-18T04:36:27.267Z,94.88
2022-10-18T04:38:54.385Z,100.57
2022-10-18T04:41:21.316Z,138.30
2022-10-18T04:43:48.371Z,105.47
2022-10-18T04:46:15.380Z,175.25
2022-10-18T04:48:43.724Z,124.00
2022-10-18T04:51:10.750Z,136.63
2022-10-18T04:53:37.735Z,214.80
2022-10-18T04:56:05.213Z,149.50
2022-10-18T04:58:32.900Z,246.05
2022-10-18T05:00:59.891Z,156.38
2022-10-18T05:03:26.955Z,249.85
2022-10-18T05:06:01.644Z,170.88
2022-10-18T05:08:29.699Z,152.52
2022-10-18T05:10:56.782Z,274.05
2022-10-18T05:13:23.966Z,114.13
2022-10-18T05:15:51.107Z,84.72
2022-10-18T05:18:18.362Z,129.02
2022-10-18T05:20:46.057Z,136.90
2022-10-18T05:23:14.413Z,76.13
2022-10-18T05:25:42.896Z,106.45
2022-10-18T05:28:34.468Z,147.38
2022-10-18T05:31:01.445Z,137.52
2022-10-18T05:33:28.831Z,106.10
2022-10-18T05:35:56.184Z,98.25
2022-10-18T05:38:25.054Z,78.75
2022-10-18T05:40:52.188Z,88.32
2022-10-18T05:43:19.281Z,54.55
2022-10-18T05:45:50.044Z,45.97
2022-10-18T05:48:17.354Z,72.47
2022-10-18T05:50:44.527Z,41.92
2022-10-18T05:53:24.722Z,34.97
2022-10-18T05:56:02.514Z,65.60
2022-10-18T05:58:29.528Z,151.10
2022-10-18T06:00:59.834Z,74.15
2022-10-18T06:03:27.811Z,108.30
2022-10-18T06:06:00.230Z,106.70
2022-10-18T06:08:27.558Z,45.97
2022-10-18T06:10:54.708Z,53.45
2022-10-18T06:13:23.597Z,76.60
2022-10-18T06:15:50.786Z,37.15
2022-10-18T06:18:17.950Z,45.03
2022-10-18T06:20:44.937Z,112.13
2022-10-18T06:23:11.955Z,136.45
2022-10-18T06:25:39.025Z,136.55
2022-10-18T06:28:10.144Z,77.13
2022-10-18T06:30:40.493Z,85.45
2022-10-18T06:33:07.623Z,129.50
2022-10-18T06:35:34.867Z,112.30
2022-10-18T06:38:02.155Z,129.38
2022-10-18T06:40:31.062Z,68.55
2022-10-18T06:43:05.761Z,99.30
2022-10-18T06:45:37.618Z,143.82
2022-10-18T06:48:07.731Z,113.97
2022-10-18T06:50:34.901Z,125.60
2022-10-18T06:53:04.510Z,147.00
2022-10-18T06:55:31.693Z,109.35
2022-10-18T06:57:58.699Z,109.13
2022-10-18T07:00:25.865Z,124.15
2022-10-18T07:02:52.883Z,60.28
2022-10-18T07:05:21.350Z,85.82
2022-10-18T07:07:51.744Z,141.60
2022-10-18T07:10:22.987Z,79.72
2022-10-18T07:12:51.628Z,57.38
2022-10-18T07:15:22.686Z,129.00
2022-10-18T07:17:50.388Z,144.15
2022-10-18T07:20:17.805Z,79.68
2022-10-18T07:22:46.633Z,51.13
2022-10-18T07:25:13.659Z,89.72
2022-10-18T07:27:42.191Z,62.28
2022-10-18T07:30:11.233Z,42.63
2022-10-18T07:32:38.301Z,44.22
2022-10-18T07:35:06.090Z,69.68
2022-10-18T07:37:33.336Z,67.43
2022-10-18T07:40:02.236Z,67.55
2022-10-18T07:42:29.833Z,89.63
2022-10-18T07:44:56.900Z,41.28
2022-10-18T07:47:24.279Z,42.70
2022-10-18T07:49:51.372Z,73.10
2022-10-18T07:52:18.669Z,76.15
2022-10-18T07:54:45.744Z,116.95
2022-10-18T07:57:14.444Z,110.13
2022-10-18T07:59:41.482Z,107.55
2022-10-18T08:02:09.242Z,157.52
2022-10-18T08:04:36.471Z,196.23
2022-10-18T08:07:03.557Z,72.80
2022-10-18T08:09:30.705Z,66.60
2022-10-18T08:11:57.793Z,159.27
2022-10-18T08:14:26.545Z,168.85
2022-10-18T08:16:53.565Z,144.63
2022-10-18T08:19:20.642Z,64.18
2022-10-18T08:21:47.690Z,71.45
2022-10-18T08:24:14.680Z,105.30
2022-10-18T08:26:41.771Z,79.18
2022-10-18T08:29:21.855Z,52.92
2022-10-18T08:31:52.536Z,123.00
2022-10-18T08:34:20.098Z,63.85
2022-10-18T08:36:47.311Z,93.25
2022-10-18T08:39:14.333Z,41.08
2022-10-18T08:42:11.511Z,53.55
2022-10-18T08:44:45.317Z,30.90
2022-10-18T08:47:16.927Z,28.65
2022-10-18T08:49:48.153Z,29.90
2022-10-18T08:52:21.135Z,30.13
2022-10-18T08:54:57.135Z,17.13
2022-10-18T08:57:24.724Z,17.00
2022-10-18T08:59:51.864Z,18.98
2022-10-18T09:02:42.142Z,20.98
2022-10-18T09:05:20.666Z,19.52
2022-10-18T09:08:15.335Z,14.32
2022-10-18T09:10:49.020Z,16.05
2022-10-18T09:13:37.739Z,15.18
2022-10-18T09:16:08.461Z,18.58
2022-10-18T09:18:50.435Z,31.23
2022-10-18T09:21:22.825Z,16.15
2022-10-18T09:23:54.204Z,14.80
2022-10-18T09:26:22.752Z,17.08
2022-10-18T09:29:08.507Z,14.85
2022-10-18T09:31:45.952Z,15.88
2022-10-18T09:34:25.458Z,14.18
2022-10-18T09:36:53.591Z,13.75
2022-10-18T09:39:25.764Z,11.48
2022-10-18T09:41:56.289Z,15.40
2022-10-18T09:44:26.696Z,11.85
2022-10-18T09:47:00.544Z,14.88
2022-10-18T09:49:32.989Z,14.35
2022-10-18T09:52:04.020Z,12.60
2022-10-18T09:54:34.815Z,11.23
2022-10-18T09:59:36.822Z,12.00
2022-10-18T10:02:04.658Z,11.38
2022-10-18T10:04:33.439Z,11.85
2022-10-18T10:07:01.589Z,8.30
2022-10-18T10:09:30.501Z,6.07
2022-10-18T10:11:58.406Z,10.90
2022-10-18T10:14:27.390Z,13.40
2022-10-18T10:16:56.607Z,10.60
2022-10-18T10:19:27.616Z,10.77
2022-10-18T10:22:06.408Z,9.55
2022-10-18T10:24:41.028Z,7.20
2022-10-18T10:29:56.476Z,10.20
2022-10-18T10:32:29.962Z,11.35
2022-10-18T10:34:58.155Z,11.30
2022-10-18T10:37:35.589Z,8.10
2022-10-18T10:40:19.321Z,8.43
2022-10-18T10:43:33.006Z,6.25
2022-10-18T10:46:03.895Z,5.35
2022-10-18T10:48:33.760Z,5.93
2022-10-18T10:51:03.973Z,5.28
2022-10-18T10:53:46.738Z,8.20
2022-10-18T10:56:21.947Z,6.30
2022-10-18T10:58:49.779Z,7.80
2022-10-18T11:01:32.021Z,8.02
2022-10-18T11:53:10.025Z,8.00
2022-10-18T12:00:58.884Z,4.90
2022-10-18T12:33:26.529Z,11.10
2022-10-18T12:38:29.506Z,12.55
2022-10-18T14:19:59.535Z,2.55
2022-10-18T15:25:12.696Z,8.68
2022-10-18T15:32:52.467Z,6.95
2022-10-18T15:35:26.286Z,4.40
2022-10-18T15:37:56.003Z,6.00
2022-10-18T15:40:41.905Z,7.18
2022-10-18T15:43:35.301Z,5.00
2022-10-18T15:46:06.665Z,5.63
2022-10-18T15:48:38.377Z,7.32
2022-10-18T15:51:08.083Z,11.02
2022-10-18T15:53:50.183Z,6.85
2022-10-18T15:56:31.906Z,7.80
2022-10-18T15:59:01.033Z,12.23
2022-10-18T16:01:34.489Z,8.27
2022-10-18T16:04:07.451Z,11.70
2022-10-18T16:06:37.349Z,13.27
2022-10-18T16:09:04.718Z,9.45
2022-10-18T16:11:31.737Z,7.03
2022-10-18T16:14:00.419Z,10.50
2022-10-18T16:16:29.212Z,15.10
2022-10-18T16:18:56.948Z,10.93
2022-10-18T16:21:27.838Z,9.15
2022-10-18T16:23:55.279Z,10.75
2022-10-18T16:26:23.035Z,6.70
2022-10-18T16:28:50.880Z,10.27
2022-10-18T16:31:19.761Z,10.93
2022-10-18T16:33:47.876Z,9.05
2022-10-18T16:36:16.712Z,5.43
2022-10-18T16:38:45.791Z,11.90
2022-10-18T16:41:16.287Z,7.75
2022-10-18T16:43:44.706Z,11.93
2022-10-18T16:46:16.738Z,8.40
2022-10-18T16:48:44.176Z,6.95
2022-10-18T16:51:11.962Z,9.23
2022-10-18T16:53:39.407Z,6.50
2022-10-18T16:56:13.767Z,8.90
2022-10-18T16:58:41.362Z,8.55
2022-10-18T17:01:11.896Z,5.20
2022-10-18T17:03:38.963Z,12.68
2022-10-18T17:06:06.521Z,15.45
2022-10-18T17:08:33.982Z,10.80
2022-10-18T17:11:01.950Z,11.93
2022-10-18T17:13:30.421Z,8.98
2022-10-18T17:15:59.716Z,8.60
2022-10-18T17:18:27.485Z,7.13
2022-10-18T17:20:55.171Z,8.82
2022-10-18T17:23:22.190Z,12.38
2022-10-18T17:26:04.825Z,10.73
2022-10-18T17:28:38.532Z,8.55
2022-10-18T17:31:07.276Z,11.20
2022-10-18T17:33:34.431Z,9.18
2022-10-18T17:36:01.750Z,9.20
2022-10-18T17:38:29.061Z,9.93
2022-10-18T17:40:57.134Z,10.40
2022-10-18T17:43:24.511Z,17.35
2022-10-18T17:45:55.521Z,9.15
2022-10-18T17:48:24.463Z,10.23
2022-10-18T17:50:51.575Z,8.48
2022-10-18T17:53:23.021Z,10.05
2022-10-18T17:55:50.156Z,10.00
2022-10-18T17:58:17.236Z,14.35
2022-10-18T18:00:44.285Z,16.80
2022-10-18T18:03:14.011Z,16.98
2022-10-18T18:05:41.384Z,10.70
2022-10-18T18:08:08.400Z,11.10
2022-10-18T18:10:35.934Z,8.48
2022-10-18T18:13:03.399Z,9.18
2022-10-18T18:15:30.764Z,5.78
2022-10-18T18:17:58.349Z,8.80
2022-10-18T18:20:27.406Z,11.57
2022-10-18T18:22:54.897Z,15.07
2022-10-18T18:25:21.960Z,7.38
2022-10-18T18:27:48.961Z,8.40
2022-10-18T18:30:18.176Z,14.85
2022-10-18T18:32:45.478Z,14.30
2022-10-18T18:35:12.656Z,10.40
2022-10-18T18:37:41.466Z,15.82
2022-10-18T18:40:09.487Z,14.80
2022-10-18T18:42:36.714Z,16.30
2022-10-18T18:45:04.234Z,17.17
2022-10-18T18:47:35.384Z,18.70
2022-10-18T18:50:02.695Z,16.58
2022-10-18T18:52:29.984Z,12.02
2022-10-18T18:54:58.521Z,14.65
2022-10-18T18:57:25.647Z,10.57
2022-10-18T18:59:52.792Z,14.05
2022-10-18T19:02:19.836Z,14.88
2022-10-18T19:04:47.239Z,12.93
2022-10-18T19:07:14.503Z,10.30
2022-10-18T19:09:43.408Z,9.75
2022-10-18T19:12:12.079Z,12.20
2022-10-18T19:14:39.534Z,12.85
2022-10-18T19:17:07.920Z,14.93
2022-10-18T19:19:35.193Z,11.43
2022-10-18T19:22:05.276Z,13.90
2022-10-18T19:24:32.941Z,13.07
2022-10-18T19:27:02.204Z,17.52
2022-10-18T19:29:32.663Z,8.60
2022-10-18T19:32:01.797Z,7.88
2022-10-18T19:34:30.404Z,10.35
2022-10-18T19:36:57.853Z,6.78
2022-10-18T19:39:26.864Z,11.50
2022-10-18T19:41:56.074Z,9.23
2022-10-18T19:44:25.226Z,10.38
2022-10-18T19:46:54.776Z,8.65
2022-10-18T19:49:21.922Z,10.43
2022-10-18T19:51:48.974Z,13.25
2022-10-18T19:54:16.707Z,11.23
2022-10-18T19:56:44.495Z,14.75
2022-10-18T19:59:16.227Z,11.38
2022-10-18T20:01:44.429Z,9.10
2022-10-18T20:04:13.463Z,11.20
2022-10-18T20:06:40.875Z,9.95
2022-10-18T20:09:13.334Z,8.68
2022-10-18T20:11:43.683Z,12.75
2022-10-18T20:14:11.224Z,15.55
2022-10-18T20:16:38.557Z,15.57
2022-10-18T20:19:07.273Z,13.93
2022-10-18T20:21:36.869Z,16.30
2022-10-18T20:24:04.375Z,13.82
2022-10-18T20:26:32.156Z,16.40
2022-10-18T20:29:00.002Z,17.45
2022-10-18T20:31:29.294Z,13.32
2022-10-18T20:33:58.023Z,15.80
2022-10-18T20:36:25.674Z,12.68
2022-10-18T20:38:55.441Z,13.60
2022-10-18T20:41:25.273Z,16.63
2022-10-18T20:43:53.325Z,14.73
2022-10-18T20:46:21.208Z,13.02
2022-10-18T20:48:49.384Z,13.25
2022-10-18T20:51:19.564Z,15.43
2022-10-18T20:53:47.316Z,11.68
2022-10-18T20:56:17.538Z,12.05
2022-10-18T20:58:45.646Z,14.95
2022-10-18T21:01:14.774Z,19.05
2022-10-18T21:03:43.797Z,18.88
2022-10-18T21:06:12.360Z,17.45
2022-10-18T21:08:39.809Z,12.30
2022-10-18T21:11:07.795Z,20.00
2022-10-18T21:13:36.771Z,14.13
2022-10-18T21:16:05.815Z,9.30
2022-10-18T21:18:34.972Z,15.20
2022-10-18T21:21:10.659Z,13.27
2022-10-18T21:23:37.859Z,13.40
2022-10-18T21:26:05.507Z,10.35
2022-10-18T21:28:32.811Z,15.40
2022-10-18T21:31:12.953Z,14.02
2022-10-18T21:33:40.288Z,9.32
2022-10-18T21:36:07.908Z,12.88
2022-10-18T21:38:35.263Z,10.20
2022-10-18T21:41:07.181Z,10.40
2022-10-18T21:43:34.562Z,13.77
2022-10-18T21:46:02.026Z,11.77
2022-10-18T21:48:30.360Z,14.77
2022-10-18T21:51:03.014Z,14.82
2022-10-18T21:53:30.185Z,22.35
2022-10-18T21:55:57.168Z,17.13
2022-10-18T21:58:24.332Z,19.42
2022-10-18T22:00:51.531Z,14.13
2022-10-18T22:03:18.943Z,14.90
2022-10-18T22:05:47.539Z,11.95
2022-10-18T22:08:14.887Z,21.40
2022-10-18T22:10:42.145Z,20.63
2022-10-18T22:13:09.100Z,18.75
2022-10-18T22:18:04.042Z,12.13
2022-10-18T22:20:31.043Z,20.10
2022-10-18T22:22:59.580Z,10.88
2022-10-18T22:25:26.534Z,18.98
2022-10-18T22:27:53.468Z,15.93
2022-10-18T22:30:20.478Z,15.70
2022-10-18T22:32:47.603Z,16.63
2022-10-18T22:35:15.167Z,12.15
2022-10-18T22:37:42.437Z,18.02
2022-10-18T22:40:12.253Z,16.83
2022-10-18T22:42:39.425Z,21.25
2022-10-18T22:45:07.622Z,14.27
2022-10-18T22:47:34.947Z,15.90
2022-10-18T22:50:02.214Z,12.98
2022-10-18T22:52:29.305Z,21.27
2022-10-18T22:54:56.626Z,16.50
2022-10-18T22:57:25.423Z,12.48
2022-10-18T22:59:52.474Z,12.82
2022-10-18T23:02:19.438Z,13.90
2022-10-18T23:04:46.376Z,14.40
2022-10-18T23:07:13.346Z,17.83
2022-10-18T23:12:12.667Z,10.32
2022-10-18T23:14:45.066Z,13.43
2022-10-18T23:17:12.302Z,10.40
2022-10-18T23:19:39.379Z,13.65
2022-10-18T23:22:06.805Z,13.13
2022-10-18T23:24:33.867Z,16.35
2022-10-18T23:27:01.169Z,11.40
2022-10-18T23:29:28.455Z,14.65
2022-10-18T23:31:56.845Z,13.20
2022-10-18T23:34:24.173Z,11.43
2022-10-18T23:36:51.514Z,14.73
2022-10-18T23:39:18.700Z,13.55
2022-10-18T23:41:45.692Z,10.93
2022-10-18T23:44:12.696Z,9.35
2022-10-18T23:46:39.676Z,11.82
2022-10-18T23:49:08.128Z,15.63
2022-10-18T23:51:35.142Z,7.80
2022-10-18T23:54:02.073Z,10.90
2022-10-18T23:56:29.109Z,9.98
2022-10-18T23:58:56.703Z,8.52
